createdAt,value
2022-09-16T00:03:11.234Z,13.80
2022-09-16T00:07:15.197Z,13.70
2022-09-16T00:11:17.859Z,13.70
2022-09-16T00:15:20.635Z,13.70
2022-09-16T00:19:23.246Z,13.70
2022-09-16T00:23:27.400Z,13.60
2022-09-16T00:27:30.055Z,13.70
2022-09-16T00:31:32.665Z,13.80
2022-09-16T00:35:35.348Z,13.60
2022-09-16T00:39:39.295Z,13.50
2022-09-16T00:43:52.899Z,13.50
2022-09-16T00:47:57.237Z,13.60
2022-09-16T00:52:01.872Z,13.60
2022-09-16T00:56:07.844Z,13.30
2022-09-16T01:00:13.425Z,13.20
2022-09-16T01:04:19.071Z,13.20
2022-09-16T01:08:21.731Z,13.20
2022-09-16T01:12:27.442Z,13.20
2022-09-16T01:16:32.207Z,13.30
2022-09-16T01:20:49.687Z,13.20
2022-09-16T01:24:55.510Z,12.90
2022-09-16T01:29:11.367Z,13.00
2022-09-16T01:33:19.036Z,13.10
2022-09-16T01:37:25.019Z,13.10
2022-09-16T01:41:32.605Z,13.10
2022-09-16T01:45:37.377Z,13.20
2022-09-16T01:49:46.210Z,13.30
2022-09-16T01:53:51.799Z,13.30
2022-09-16T01:57:57.331Z,13.40
2022-09-16T02:02:03.702Z,13.40
2022-09-16T02:06:09.454Z,13.40
2022-09-16T02:10:14.807Z,13.40
2022-09-16T02:14:19.371Z,13.40
2022-09-16T02:18:24.368Z,13.50
2022-09-16T02:22:30.394Z,13.50
2022-09-16T02:26:36.007Z,13.50
2022-09-16T02:30:38.592Z,13.50
2022-09-16T02:34:43.206Z,13.60
2022-09-16T02:38:48.703Z,13.50
2022-09-16T02:42:51.780Z,13.40
2022-09-16T02:46:57.460Z,13.40
2022-09-16T02:51:03.171Z,13.40
2022-09-16T02:55:12.269Z,13.40
2022-09-16T02:59:16.036Z,13.50
2022-09-16T03:03:18.842Z,13.50
2022-09-16T03:07:21.504Z,13.60
2022-09-16T03:11:30.308Z,13.50
2022-09-16T03:15:37.963Z,13.50
2022-09-16T03:19:45.620Z,13.50
2022-09-16T03:23:53.983Z,13.40
2022-09-16T03:28:01.615Z,13.40
2022-09-16T03:32:06.586Z,13.40
2022-09-16T03:36:10.369Z,13.40
2022-09-16T03:40:14.142Z,13.20
2022-09-16T03:44:18.255Z,13.20
2022-09-16T03:48:20.869Z,13.20
2022-09-16T03:52:23.446Z,13.20
2022-09-16T03:56:26.030Z,13.20
2022-09-16T04:00:30.063Z,13.20
2022-09-16T04:04:32.619Z,13.20
2022-09-16T04:08:35.187Z,13.30
2022-09-16T04:12:37.771Z,13.30
2022-09-16T04:16:44.989Z,13.30
2022-09-16T04:20:48.033Z,13.20
2022-09-16T04:24:50.801Z,13.20
2022-09-16T04:28:53.532Z,13.20
2022-09-16T04:32:57.948Z,13.20
2022-09-16T04:37:00.525Z,13.20
2022-09-16T04:41:03.412Z,13.10
2022-09-16T04:45:06.573Z,13.20
2022-09-16T04:49:12.715Z,13.20
2022-09-16T04:53:15.306Z,13.10
2022-09-16T04:57:17.888Z,13.20
2022-09-16T05:01:21.249Z,13.20
2022-09-16T05:05:25.259Z,13.20
2022-09-16T05:09:28.380Z,13.20
2022-09-16T05:13:30.959Z,13.20
2022-09-16T05:17:50.459Z,13.20
2022-09-16T05:21:55.403Z,13.30
2022-09-16T05:26:03.171Z,13.20
2022-09-16T05:30:06.149Z,13.30
2022-09-16T05:34:12.246Z,13.30
2022-09-16T05:38:16.460Z,13.40
2022-09-16T05:42:19.056Z,13.40
2022-09-16T05:46:22.329Z,13.40
2022-09-16T05:50:24.920Z,13.50
2022-09-16T05:54:28.889Z,13.60
2022-09-16T05:58:32.495Z,13.70
2022-09-16T06:02:35.141Z,13.60
2022-09-16T06:06:39.211Z,13.70
2022-09-16T06:10:43.236Z,13.70
2022-09-16T06:14:45.874Z,13.70
2022-09-16T06:18:48.514Z,13.70
2022-09-16T06:22:51.141Z,13.80
2022-09-16T06:26:55.105Z,13.80
2022-09-16T06:31:05.047Z,13.90
2022-09-16T06:35:08.011Z,14.00
2022-09-16T06:39:12.328Z,14.10
2022-09-16T06:43:16.306Z,14.10
2022-09-16T06:47:18.929Z,14.10
2022-09-16T06:51:22.778Z,14.00
2022-09-16T06:55:25.431Z,14.00
2022-09-16T06:59:29.359Z,14.00
2022-09-16T07:03:31.943Z,14.10
2022-09-16T07:07:36.548Z,13.90
2022-09-16T07:11:40.698Z,14.00
2022-09-16T07:16:09.110Z,14.30
2022-09-16T07:20:07.687Z,14.40
2022-09-16T07:24:12.354Z,14.40
2022-09-16T07:28:14.924Z,14.30
2022-09-16T07:32:18.846Z,14.20
2022-09-16T07:36:22.306Z,14.20
2022-09-16T07:40:29.550Z,14.40
2022-09-16T07:44:32.382Z,14.50
2022-09-16T07:48:36.356Z,14.40
2022-09-16T07:52:38.988Z,14.30
2022-09-16T07:56:42.487Z,14.40
2022-09-16T08:00:45.043Z,14.50
2022-09-16T08:04:49.018Z,14.90
2022-09-16T08:08:52.957Z,15.20
2022-09-16T08:12:55.690Z,15.40
2022-09-16T08:16:58.769Z,15.60
2022-09-16T08:21:08.014Z,15.80
2022-09-16T08:25:10.771Z,15.80
2022-09-16T08:29:13.693Z,15.70
2022-09-16T08:33:21.018Z,15.90
2022-09-16T08:37:26.554Z,15.90
2022-09-16T08:41:40.686Z,15.90
2022-09-16T08:45:45.692Z,15.60
2022-09-16T08:49:51.019Z,15.70
2022-09-16T08:53:57.292Z,15.90
2022-09-16T08:58:02.332Z,15.90
2022-09-16T09:02:14.382Z,15.60
2022-09-16T09:06:23.974Z,15.40
2022-09-16T09:10:31.589Z,15.40
2022-09-16T09:14:38.906Z,15.30
2022-09-16T09:18:45.110Z,15.40
2022-09-16T09:22:55.058Z,15.30
2022-09-16T09:27:00.878Z,15.40
2022-09-16T09:31:10.607Z,15.40
2022-09-16T09:35:22.442Z,15.50
2022-09-16T09:39:42.907Z,15.50
2022-09-16T09:43:49.003Z,15.40
2022-09-16T09:47:53.438Z,15.30
2022-09-16T09:51:58.086Z,15.20
2022-09-16T09:56:05.596Z,15.10
2022-09-16T10:00:13.866Z,14.80
2022-09-16T10:04:16.922Z,14.60
2022-09-16T10:08:23.754Z,14.80
2022-09-16T10:12:30.505Z,15.20
2022-09-16T10:16:37.178Z,15.50
2022-09-16T10:20:40.879Z,15.40
2022-09-16T10:24:44.024Z,15.20
2022-09-16T10:28:56.731Z,15.20
2022-09-16T10:33:01.906Z,15.10
2022-09-16T10:37:05.950Z,15.00
2022-09-16T10:41:09.618Z,14.90
2022-09-16T10:45:16.864Z,14.80
2022-09-16T10:49:21.606Z,14.70
2022-09-16T10:53:30.590Z,13.60
2022-09-16T10:57:34.322Z,13.20
2022-09-16T11:01:44.471Z,13.00
2022-09-16T11:05:55.037Z,13.10
2022-09-16T11:10:00.831Z,13.10
2022-09-16T11:14:07.671Z,13.20
2022-09-16T11:18:17.677Z,13.00
2022-09-16T11:22:26.983Z,12.70
2022-09-16T11:26:32.395Z,12.90
2022-09-16T11:34:14.059Z,12.60
2022-09-16T11:38:25.882Z,12.80
2022-09-16T11:42:34.820Z,12.90
2022-09-16T11:46:47.026Z,13.50
2022-09-16T11:50:58.706Z,13.60
2022-09-16T11:55:32.367Z,13.70
2022-09-16T11:59:40.990Z,13.60
2022-09-16T12:03:49.520Z,14.00
2022-09-16T12:07:59.235Z,14.00
2022-09-16T12:12:11.997Z,13.80
2022-09-16T12:16:18.192Z,13.50
2022-09-16T12:20:25.876Z,13.40
2022-09-16T12:24:37.055Z,13.60
2022-09-16T12:28:46.042Z,13.60
2022-09-16T12:32:56.695Z,13.40
2022-09-16T12:37:04.499Z,13.40
2022-09-16T12:41:22.646Z,13.50
2022-09-16T12:45:44.974Z,13.60
2022-09-16T12:50:23.226Z,13.50
2022-09-16T12:55:07.712Z,13.30
2022-09-16T12:59:26.418Z,13.40
2022-09-16T13:03:32.296Z,13.80
2022-09-16T13:07:36.573Z,13.90
2022-09-16T13:16:07.927Z,13.90
2022-09-16T13:20:18.702Z,13.80
2022-09-16T13:24:31.175Z,14.00
2022-09-16T13:28:38.842Z,14.20
2022-09-16T13:32:46.170Z,14.90
2022-09-16T13:36:48.960Z,14.60
2022-09-16T13:40:57.432Z,14.30
2022-09-16T13:45:00.131Z,14.10
2022-09-16T13:49:19.771Z,17.40
2022-09-16T13:53:25.889Z,18.80
2022-09-16T13:57:48.358Z,19.00
2022-09-16T14:04:29.804Z,19.20
2022-09-16T14:08:41.535Z,19.40
2022-09-16T14:12:52.934Z,19.30
2022-09-16T14:16:55.786Z,19.20
2022-09-16T14:21:02.694Z,19.50
2022-09-16T14:25:29.707Z,13.40
2022-09-16T14:29:32.861Z,14.90
2022-09-16T14:33:39.849Z,14.20
2022-09-16T14:37:46.185Z,13.80
2022-09-16T14:41:52.071Z,13.80
2022-09-16T14:50:08.040Z,13.70
2022-09-16T14:54:18.859Z,13.90
2022-09-16T14:58:23.661Z,13.70
2022-09-16T15:02:30.392Z,13.50
2022-09-16T15:06:40.390Z,13.40
2022-09-16T15:10:52.485Z,13.40
2022-09-16T15:14:55.667Z,13.50
2022-09-16T15:19:01.631Z,13.70
2022-09-16T15:23:09.642Z,13.60
2022-09-16T15:27:24.153Z,13.50
2022-09-16T15:31:34.662Z,13.50
2022-09-16T15:35:38.603Z,13.40
2022-09-16T15:39:41.285Z,13.40
2022-09-16T15:43:47.057Z,13.30
2022-09-16T15:47:57.808Z,13.30
2022-09-16T15:52:07.961Z,13.20
2022-09-16T15:56:22.551Z,13.10
2022-09-16T16:00:26.631Z,13.10
2022-09-16T16:04:32.090Z,13.20
2022-09-16T16:08:40.272Z,13.00
2022-09-16T16:12:43.409Z,12.90
2022-09-16T16:17:11.249Z,13.10
2022-09-16T16:21:12.587Z,13.00
2022-09-16T16:25:15.290Z,13.00
2022-09-16T16:29:18.172Z,13.00
2022-09-16T16:33:22.234Z,13.00
2022-09-16T16:37:45.486Z,13.00
2022-09-16T16:41:48.405Z,12.80
2022-09-16T16:45:54.908Z,13.00
2022-09-16T16:50:00.697Z,12.80
2022-09-16T16:54:03.478Z,12.80
2022-09-16T16:58:06.154Z,12.90
2022-09-16T17:02:12.293Z,12.70
2022-09-16T17:06:16.955Z,12.50
2022-09-16T17:10:19.601Z,12.50
2022-09-16T17:14:23.587Z,12.40
2022-09-16T17:18:26.271Z,12.40
2022-09-16T17:22:30.290Z,12.40
2022-09-16T17:26:32.978Z,12.40
2022-09-16T17:30:35.695Z,12.30
2022-09-16T17:34:38.382Z,12.30
2022-09-16T17:38:42.970Z,12.30
2022-09-16T17:42:45.643Z,12.20
2022-09-16T17:46:48.487Z,12.20
2022-09-16T17:50:51.961Z,12.10
2022-09-16T17:54:56.162Z,12.20
2022-09-16T17:58:58.838Z,12.00
2022-09-16T18:03:01.794Z,12.10
2022-09-16T18:07:04.569Z,11.90
2022-09-16T18:11:10.320Z,12.00
2022-09-16T18:15:13.066Z,12.00
2022-09-16T18:19:15.978Z,11.90
2022-09-16T18:23:18.639Z,12.00
2022-09-16T18:27:22.729Z,11.90
2022-09-16T18:31:26.200Z,12.00
2022-09-16T18:35:29.032Z,11.80
2022-09-16T18:39:32.326Z,12.00
2022-09-16T18:43:36.942Z,11.90
2022-09-16T18:47:39.656Z,11.80
2022-09-16T18:51:47.424Z,12.00
2022-09-16T18:55:53.709Z,11.90
2022-09-16T18:59:57.784Z,11.80
2022-09-16T19:04:02.054Z,11.60
2022-09-16T19:08:04.770Z,11.70
2022-09-16T19:12:09.610Z,11.90
2022-09-16T19:16:14.450Z,11.80
2022-09-16T19:20:17.202Z,11.80
2022-09-16T19:24:22.755Z,11.80
2022-09-16T19:28:25.426Z,11.90
2022-09-16T19:32:29.504Z,11.90
2022-09-16T19:36:34.614Z,11.90
2022-09-16T19:40:37.301Z,11.80
2022-09-16T19:44:40.323Z,11.80
2022-09-16T19:48:46.188Z,11.70
2022-09-16T19:52:48.910Z,11.70
2022-09-16T19:56:51.719Z,11.90
2022-09-16T20:00:59.393Z,11.80
2022-09-16T20:05:05.112Z,11.70
2022-09-16T20:09:13.273Z,11.70
2022-09-16T20:13:15.943Z,11.90
2022-09-16T20:17:18.648Z,12.00
2022-09-16T20:21:25.059Z,11.90
2022-09-16T20:25:27.799Z,11.90
2022-09-16T20:29:31.780Z,12.10
2022-09-16T20:33:34.611Z,12.00
2022-09-16T20:37:38.800Z,12.10
2022-09-16T20:41:41.730Z,12.10
2022-09-16T20:45:45.028Z,12.10
2022-09-16T20:49:47.735Z,12.00
2022-09-16T20:53:53.640Z,12.00
2022-09-16T20:57:56.375Z,12.00
2022-09-16T21:02:03.916Z,12.00
2022-09-16T21:06:09.572Z,12.00
2022-09-16T21:10:13.638Z,12.10
2022-09-16T21:14:17.965Z,12.20
2022-09-16T21:18:22.235Z,12.40
2022-09-16T21:22:24.959Z,12.20
2022-09-16T21:26:30.942Z,12.10
2022-09-16T21:30:33.623Z,12.10
2022-09-16T21:34:36.294Z,11.90
2022-09-16T21:38:40.038Z,11.90
2022-09-16T21:42:45.703Z,12.00
2022-09-16T21:46:49.536Z,11.80
2022-09-16T21:50:53.547Z,11.80
2022-09-16T21:54:56.194Z,11.80
2022-09-16T21:59:00.770Z,12.00
2022-09-16T22:03:03.451Z,11.90
2022-09-16T22:07:10.637Z,11.90
2022-09-16T22:11:15.318Z,11.80
2022-09-16T22:15:20.150Z,11.80
2022-09-16T22:19:22.832Z,11.70
2022-09-16T22:23:25.655Z,11.70
2022-09-16T22:27:28.908Z,11.90
2022-09-16T22:31:34.337Z,11.80
2022-09-16T22:35:37.378Z,11.60
2022-09-16T22:39:40.048Z,11.50
2022-09-16T22:43:44.780Z,11.50
2022-09-16T22:47:48.867Z,11.50
2022-09-16T22:51:51.574Z,11.60
2022-09-16T22:55:57.503Z,11.70
2022-09-16T23:00:00.156Z,11.60
2022-09-16T23:04:05.166Z,11.50
2022-09-16T23:08:07.971Z,11.60
2022-09-16T23:12:11.034Z,11.50
2022-09-16T23:16:16.089Z,11.50
2022-09-16T23:20:20.166Z,11.50
2022-09-16T23:24:23.277Z,11.50
2022-09-16T23:28:25.971Z,11.50
2022-09-16T23:32:29.906Z,11.10
2022-09-16T23:36:37.398Z,11.20
2022-09-16T23:40:40.862Z,11.00
2022-09-16T23:44:43.602Z,10.90
2022-09-16T23:48:46.301Z,10.90
2022-09-16T23:52:50.329Z,10.80
2022-09-16T23:56:52.965Z,10.70
